Temp: 19.3°C   Baro: 1022.3mb
  Wind: 4.0mph   Dir: NW (325°)
  Rain: 0.0mm (0.0mm/hr)
  Solar: 714W/m2  Hum: 58%
 
Bath Spa Weather Station Historical Data
Daily Summary for March 3, 2020 Units:  Metric    English   Both
Daily Weekly Monthly Yearly Custom
  High: Low: Average:
Temperature: 18.7 °C 11 °C 14.4 °C
Dew Point: 13.3 °C 9.3 °C 11.4 °C
Humidity: 90% 66.8% 83%
Wind Speed: 21.6km/h 0km/h 10.1km/h
Wind Gust: 35.4km/h - -
Wind- - WSW
Pressure: 1016.5 hPa 1012.1 hPa -
Precipitation: 1.78 mm    
Historical Graphs
 
 
Tabular Data for March 3, 2020
Time Temperature Dew Point Pressure Wind Wind Speed Wind Gust Humidity Rainfall Rate (Hourly) solar
00:04 12.9 °C 10.8 °C 1016.5 hPa West 1.9 km/h 4.8 km/h 87% 0 mm 0 W/m2
00:09 12.9 °C 10.8 °C 1016.5 hPa West 2.1 km/h 6.4 km/h 87% 0 mm 0 W/m2
00:14 12.8 °C 10.7 °C 1016.5 hPa West 2.3 km/h 6.4 km/h 87% 0 mm 0 W/m2
00:19 12.8 °C 10.7 °C 1016.5 hPa West 1.9 km/h 4.8 km/h 87% 0 mm 0 W/m2
00:24 12.7 °C 10.6 °C 1016.5 hPa West 2.1 km/h 6.4 km/h 87% 0 mm 0 W/m2
00:29 12.6 °C 10.6 °C 1016.5 hPa West 1.8 km/h 4.8 km/h 87.2% 0 mm 0 W/m2
00:34 12.6 °C 10.7 °C 1016.5 hPa West 1.3 km/h 3.2 km/h 88% 0 mm 0 W/m2
00:39 12.4 °C 10.6 °C 1016.5 hPa West 1.8 km/h 3.2 km/h 88% 0 mm 0 W/m2
00:44 12.4 °C 10.5 °C 1016.5 hPa West 2.3 km/h 4.8 km/h 88% 0 mm 0 W/m2
00:49 12.3 °C 10.4 °C 1016.5 hPa West 0.6 km/h 4.8 km/h 88% 0 mm 0 W/m2
00:54 12.3 °C 10.3 °C 1016.5 hPa West 1.3 km/h 4.8 km/h 88% 0 mm 0 W/m2
00:59 12.2 °C 10.3 °C 1016.5 hPa West 2.9 km/h 4.8 km/h 88% 0 mm 0 W/m2
01:04 12.2 °C 10.2 °C 1016.5 hPa West 2.1 km/h 4.8 km/h 88% 0 mm 0 W/m2
01:09 12.1 °C 10.2 °C 1016.5 hPa West 0.3 km/h 3.2 km/h 88% 0 mm 0 W/m2
01:14 12.1 °C 10.2 °C 1016.1 hPa Calm     88% 0 mm 0 W/m2
01:18 11.9 °C 10 °C 1016.1 hPa Calm   1.6 km/h 88% 0 mm 0 W/m2
01:24 11.9 °C 10.1 °C 1016.5 hPa Calm   1.6 km/h 89% 0 mm 0 W/m2
01:29 11.9 °C 10.1 °C 1016.1 hPa Calm     89% 0 mm 0 W/m2
01:34 11.7 °C 9.9 °C 1016.1 hPa West 3.2 km/h 6.4 km/h 89% 0 mm 0 W/m2
01:39 11.7 °C 9.9 °C 1016.1 hPa West 2.3 km/h 6.4 km/h 89% 0 mm 0 W/m2
01:44 11.6 °C 9.8 °C 1016.1 hPa West 2.9 km/h 4.8 km/h 89% 0 mm 0 W/m2
01:49 11.6 °C 9.8 °C 1016.1 hPa West 2.1 km/h 4.8 km/h 89% 0 mm 0 W/m2
01:54 11.5 °C 9.7 °C 1016.1 hPa West 2.4 km/h 4.8 km/h 89% 0 mm 0 W/m2
01:59 11.4 °C 9.7 °C 1016.1 hPa West 0.3 km/h 3.2 km/h 89% 0 mm 0 W/m2
02:04 11.4 °C 9.7 °C 1016.1 hPa West 0.6 km/h 3.2 km/h 89% 0 mm 0 W/m2
02:09 11.3 °C 9.7 °C 1016.1 hPa West 0.6 km/h 3.2 km/h 89% 0 mm 0 W/m2
02:14 11.3 °C 9.7 °C 1016.1 hPa West 2.7 km/h 4.8 km/h 89% 0 mm 0 W/m2
02:19 11.3 °C 9.7 °C 1016.5 hPa WNW 2.6 km/h 6.4 km/h 89.2% 0 mm 0 W/m2
02:24 11.3 °C 9.7 °C 1016.5 hPa NW 2.6 km/h 6.4 km/h 89.6% 0 mm 0 W/m2
02:29 11.3 °C 9.7 °C 1016.5 hPa West 4.5 km/h 11.3 km/h 90% 0 mm 0 W/m2
02:34 11.4 °C 9.8 °C 1016.5 hPa West 3.2 km/h 11.3 km/h 90% 0 mm 0 W/m2
02:39 11.4 °C 9.8 °C 1016.5 hPa West 3.9 km/h 6.4 km/h 90% 0 mm 0 W/m2
02:44 11.4 °C 9.7 °C 1016.5 hPa West 3.5 km/h 8 km/h 89.2% 0 mm 0 W/m2
02:49 11.4 °C 9.8 °C 1016.5 hPa WNW 4.2 km/h 8 km/h 89.6% 0 mm 0 W/m2
02:54 11.4 °C 9.7 °C 1016.5 hPa West 3.2 km/h 9.7 km/h 89% 0 mm 0 W/m2
02:59 11.4 °C 9.7 °C 1016.1 hPa WNW 3.2 km/h 9.7 km/h 89% 0 mm 0 W/m2
03:04 11.4 °C 9.7 °C 1016.1 hPa WNW 2.3 km/h 6.4 km/h 89% 0 mm 0 W/m2
03:09 11.4 °C 9.7 °C 1016.1 hPa WNW 2.9 km/h 8 km/h 89% 0 mm 0 W/m2
03:14 11.3 °C 9.6 °C 1016.1 hPa WNW 0.6 km/h 6.4 km/h 89% 0 mm 0 W/m2
03:19 11.3 °C 9.6 °C 1016.5 hPa WNW 3.5 km/h 8 km/h 89% 0 mm 0 W/m2
03:24 11.3 °C 9.6 °C 1016.1 hPa WNW 4 km/h 9.7 km/h 89% 0 mm 0 W/m2
03:29 11.2 °C 9.6 °C 1016.5 hPa WNW 4.7 km/h 9.7 km/h 89% 0 mm 0 W/m2
03:34 11.2 °C 9.5 °C 1016.5 hPa WNW 3.4 km/h 9.7 km/h 89% 0 mm 0 W/m2
03:39 11.2 °C 9.5 °C 1016.5 hPa WNW 3.5 km/h 9.7 km/h 89% 0 mm 0 W/m2
03:44 11.2 °C 9.5 °C 1016.5 hPa WNW 3.4 km/h 8 km/h 89% 0 mm 0 W/m2
03:49 11.2 °C 9.5 °C 1016.5 hPa WNW 2.7 km/h 8 km/h 89% 0 mm 0 W/m2
03:54 11.2 °C 9.5 °C 1016.5 hPa WNW 3.7 km/h 9.7 km/h 89% 0 mm 0 W/m2
03:59 11.2 °C 9.5 °C 1016.5 hPa WNW 4 km/h 8 km/h 89% 0 mm 0 W/m2
04:04 11.1 °C 9.4 °C 1016.1 hPa West 5.3 km/h 9.7 km/h 89% 0 mm 0 W/m2
04:09 11.2 °C 9.5 °C 1016.1 hPa West 3.2 km/h 9.7 km/h 89% 0 mm 0 W/m2
04:14 11.2 °C 9.5 °C 1016.1 hPa West 3.2 km/h 9.7 km/h 89% 0 mm 0 W/m2
04:19 11.2 °C 9.6 °C 1016.1 hPa West 4.5 km/h 11.3 km/h 89% 0 mm 0 W/m2
04:24 11.3 °C 9.6 °C 1016.1 hPa West 4.5 km/h 11.3 km/h 89% 0 mm 0 W/m2
04:29 11.3 °C 9.6 °C 1016.1 hPa West 3.4 km/h 9.7 km/h 89% 0 mm 0 W/m2
04:34 11.2 °C 9.5 °C 1016.1 hPa West 3.5 km/h 8 km/h 89% 0 mm 0 W/m2
04:39 11.1 °C 9.4 °C 1016.1 hPa West 4.8 km/h 8 km/h 89% 0 mm 0 W/m2
04:44 11 °C 9.3 °C 1016.1 hPa NW 6.1 km/h 9.7 km/h 89% 0 mm 0 W/m2
04:49 11.1 °C 9.3 °C 1016.5 hPa WNW 4.7 km/h 11.3 km/h 89% 0 mm 0 W/m2
04:54 11.1 °C 9.4 °C 1016.5 hPa WNW 3.5 km/h 6.4 km/h 89% 0 mm 0 W/m2
04:59 11.1 °C 9.4 °C 1016.5 hPa West 2.9 km/h 6.4 km/h 89% 0 mm 0 W/m2
05:04 11.2 °C 9.5 °C 1016.1 hPa West 2.1 km/h 6.4 km/h 89% 0 mm 0 W/m2
05:09 11.3 °C 9.6 °C 1016.1 hPa West 3.2 km/h 6.4 km/h 89% 0 mm 5 W/m2
05:14 11.4 °C 9.7 °C 1016.1 hPa West 3.9 km/h 8 km/h 89% 0 mm 5 W/m2
05:19 11.6 °C 9.8 °C 1016.1 hPa West 4.7 km/h 11.3 km/h 89% 0 mm 7 W/m2
05:24 11.7 °C 9.9 °C 1016.1 hPa West 4.7 km/h 11.3 km/h 89% 0 mm 5 W/m2
05:29 11.8 °C 10 °C 1016.5 hPa West 4.7 km/h 9.7 km/h 89% 0 mm 9 W/m2
05:34 11.8 °C 10 °C 1016.1 hPa WSW 7.1 km/h 14.5 km/h 88.5% 0 mm 14 W/m2
05:39 11.9 °C 10 °C 1016.5 hPa WSW 5.1 km/h 12.9 km/h 88% 0 mm 14 W/m2
05:44 11.9 °C 10 °C 1016.1 hPa WSW 5.8 km/h 12.9 km/h 88% 0 mm 12 W/m2
05:49 11.9 °C 9.9 °C 1016.1 hPa WSW 5.8 km/h 11.3 km/h 87.4% 0 mm 14 W/m2
05:54 11.9 °C 9.8 °C 1016.1 hPa WSW 5.8 km/h 11.3 km/h 87% 0 mm 25 W/m2
05:59 11.9 °C 9.8 °C 1016.1 hPa West 6.9 km/h 9.7 km/h 87% 0 mm 42 W/m2
06:04 11.9 °C 9.8 °C 1016.1 hPa West 7.7 km/h 12.9 km/h 87% 0 mm 33 W/m2
06:09 12.1 °C 9.9 °C 1016.1 hPa WSW 6.8 km/h 12.9 km/h 87% 0 mm 49 W/m2
06:14 12.1 °C 10 °C 1016.1 hPa WSW 6.8 km/h 12.9 km/h 87% 0 mm 63 W/m2
06:19 12.2 °C 10.1 °C 1016.1 hPa WSW 6.4 km/h 14.5 km/h 87% 0 mm 91 W/m2
06:24 12.2 °C 10.1 °C 1016.1 hPa WSW 7.2 km/h 16.1 km/h 87% 0 mm 98 W/m2
06:29 12.3 °C 10.2 °C 1016.1 hPa WSW 9 km/h 19.3 km/h 87% 0 mm 53 W/m2
06:34 12.3 °C 10.2 °C 1016.1 hPa WSW 9 km/h 16.1 km/h 87% 0 mm 54 W/m2
06:39 12.3 °C 10.3 °C 1016.1 hPa WSW 9.3 km/h 16.1 km/h 87% 0 mm 70 W/m2
06:44 12.4 °C 10.3 °C 1016.1 hPa WSW 8.5 km/h 14.5 km/h 87% 0 mm 77 W/m2
06:49 12.6 °C 10.4 °C 1016.1 hPa WSW 9.8 km/h 19.3 km/h 86.6% 0 mm 90 W/m2
06:54 12.7 °C 10.3 °C 1016.1 hPa SW 10.3 km/h 16.1 km/h 86% 0 mm 116 W/m2
06:59 12.8 °C 10.5 °C 1016.1 hPa WSW 11.9 km/h 16.1 km/h 86% 0 mm 113 W/m2
07:04 12.9 °C 10.6 °C 1016.1 hPa WSW 10.3 km/h 17.7 km/h 85.8% 0 mm 107 W/m2
07:09 12.9 °C 10.4 °C 1016.1 hPa WSW 6.8 km/h 16.1 km/h 85.2% 0 mm 118 W/m2
07:14 12.9 °C 10.4 °C 1016.1 hPa WSW 9 km/h 17.7 km/h 85% 0 mm 137 W/m2
07:19 13.1 °C 10.6 °C 1016.1 hPa SW 7.7 km/h 11.3 km/h 85% 0 mm 137 W/m2
07:24 13.1 °C 10.6 °C 1016.1 hPa WSW 11.6 km/h 19.3 km/h 85% 0 mm 135 W/m2
07:29 13.1 °C 10.6 °C 1016.1 hPa SW 9.2 km/h 17.7 km/h 85% 0 mm 134 W/m2
07:34 13.1 °C 10.6 °C 1016.1 hPa WSW 10.6 km/h 17.7 km/h 85% 0 mm 134 W/m2
07:39 13.1 °C 10.6 °C 1016.1 hPa WSW 9.3 km/h 16.1 km/h 85% 0 mm 165 W/m2
07:44 13.2 °C 10.7 °C 1016.1 hPa SW 8.7 km/h 20.9 km/h 85% 0 mm 146 W/m2
07:48 13.2 °C 10.7 °C 1016.1 hPa SW 13.2 km/h 20.9 km/h 85% 0 mm 160 W/m2
07:54 13.3 °C 10.8 °C 1016.1 hPa WSW 7.6 km/h 24.1 km/h 85% 0 mm 288 W/m2
07:59 13.4 °C 10.8 °C 1016.1 hPa WSW 14.2 km/h 22.5 km/h 84.6% 0 mm 381 W/m2
08:04 13.4 °C 10.8 °C 1016.1 hPa WSW 13.2 km/h 20.9 km/h 84% 0 mm 262 W/m2
08:09 13.7 °C 10.9 °C 1016.1 hPa SW 9.7 km/h 17.7 km/h 84% 0 mm 438 W/m2
08:14 13.8 °C 11.1 °C 1016.1 hPa WSW 11.4 km/h 20.9 km/h 83.8% 0 mm 406 W/m2
08:19 13.9 °C 11.1 °C 1016.1 hPa WSW 10.6 km/h 20.9 km/h 83% 0 mm 272 W/m2
08:24 13.9 °C 11.2 °C 1015.8 hPa WSW 11.4 km/h 22.5 km/h 83% 0 mm 264 W/m2
08:29 13.9 °C 11.1 °C 1016.1 hPa SW 13.5 km/h 24.1 km/h 83% 0 mm 160 W/m2
08:34 14 °C 11.2 °C 1016.1 hPa SW 11.9 km/h 17.7 km/h 83% 0 mm 128 W/m2
08:39 14 °C 11 °C 1016.1 hPa SW 12.1 km/h 27.4 km/h 82% 0 mm 97 W/m2
08:44 14 °C 11 °C 1016.1 hPa SW 15.4 km/h 27.4 km/h 82% 0 mm 93 W/m2
08:49 14.1 °C 11.1 °C 1016.1 hPa WSW 10.6 km/h 24.1 km/h 82% 0 mm 113 W/m2
08:54 14.1 °C 11.1 °C 1016.1 hPa WSW 13.5 km/h 25.7 km/h 82% 0 mm 418 W/m2
08:59 14.3 °C 11.3 °C 1016.1 hPa WSW 10.9 km/h 22.5 km/h 81.8% 0 mm 622 W/m2
09:04 14.7 °C 11.4 °C 1016.1 hPa WSW 13.2 km/h 25.7 km/h 80.4% 0 mm 700 W/m2
09:09 15 °C 11.4 °C 1016.1 hPa SW 16.4 km/h 24.1 km/h 79.4% 0 mm 258 W/m2
09:14 14.9 °C 11.1 °C 1016.1 hPa West 14.3 km/h 24.1 km/h 78% 0 mm 297 W/m2
09:19 15.1 °C 11.2 °C 1016.1 hPa WSW 18.3 km/h 27.4 km/h 77.4% 0 mm 633 W/m2
09:24 15.2 °C 11.1 °C 1016.1 hPa West 12.4 km/h 27.4 km/h 76.8% 0 mm 652 W/m2
09:29 15.3 °C 11.1 °C 1016.1 hPa West 13.5 km/h 30.6 km/h 75.8% 0 mm 729 W/m2
09:34 15.3 °C 10.8 °C 1016.1 hPa WSW 20.1 km/h 32.2 km/h 74.8% 0 mm 322 W/m2
09:39 15.2 °C 10.7 °C 1016.1 hPa WSW 16.1 km/h 30.6 km/h 74.8% 0 mm 195 W/m2
09:44 15.1 °C 10.7 °C 1016.1 hPa WSW 15.3 km/h 29 km/h 75% 0 mm 202 W/m2
09:49 15.1 °C 10.7 °C 1016.1 hPa WSW 17.4 km/h 25.7 km/h 75% 0 mm 287 W/m2
09:54 15.1 °C 10.7 °C 1016.1 hPa WSW 17.2 km/h 29 km/h 75% 0 mm 385 W/m2
09:59 15.3 °C 10.9 °C 1016.1 hPa WSW 9.7 km/h 22.5 km/h 75% 0 mm 367 W/m2
10:04 15.4 °C 10.9 °C 1016.1 hPa West 15.8 km/h 25.7 km/h 74.4% 0 mm 265 W/m2
10:08 15.4 °C 10.8 °C 1016.1 hPa West 12.1 km/h 25.7 km/h 74% 0 mm 329 W/m2
10:14 15.4 °C 10.8 °C 1016.1 hPa SW 15.9 km/h 25.7 km/h 74.2% 0 mm 343 W/m2
10:19 15.4 °C 11 °C 1016.1 hPa SW 15.4 km/h 24.1 km/h 75% 0 mm 316 W/m2
10:24 15.4 °C 11 °C 1016.1 hPa WSW 15.8 km/h 29 km/h 75% 0 mm 315 W/m2
10:29 15.4 °C 11 °C 1016.1 hPa SW 13.8 km/h 25.7 km/h 74.6% 0 mm 397 W/m2
10:34 15.6 °C 11 °C 1016.1 hPa WSW 16.7 km/h 24.1 km/h 74% 0 mm 387 W/m2
10:39 15.6 °C 10.8 °C 1016.1 hPa SW 15.4 km/h 29 km/h 73.2% 0 mm 221 W/m2
10:44 15.7 °C 11.1 °C 1016.1 hPa WSW 14.2 km/h 20.9 km/h 74% 0 mm 265 W/m2
10:48 15.7 °C 11 °C 1016.1 hPa WSW 14.8 km/h 25.7 km/h 73.5% 0 mm 369 W/m2
10:54 15.8 °C 11.1 °C 1016.1 hPa West 8.9 km/h 24.1 km/h 73.2% 0 mm 316 W/m2
10:59 16.1 °C 11.2 °C 1016.1 hPa SW 11.3 km/h 19.3 km/h 72.6% 0 mm 345 W/m2
11:04 16.1 °C 11 °C 1016.1 hPa WSW 15.1 km/h 20.9 km/h 71.6% 0 mm 297 W/m2
11:09 16.2 °C 11.1 °C 1016.1 hPa WSW 11.3 km/h 19.3 km/h 71.8% 0 mm 299 W/m2
11:14 16.2 °C 11 °C 1016.1 hPa WSW 13.5 km/h 30.6 km/h 71.6% 0 mm 246 W/m2
11:19 16.2 °C 10.9 °C 1016.1 hPa WSW 11.4 km/h 20.9 km/h 71% 0 mm 218 W/m2
11:24 16.2 °C 11 °C 1016.1 hPa West 18.3 km/h 32.2 km/h 71.4% 0 mm 262 W/m2
11:29 16.2 °C 10.8 °C 1016.1 hPa WSW 18.2 km/h 32.2 km/h 71% 0 mm 220 W/m2
11:34 16.2 °C 11 °C 1016.1 hPa WSW 16.9 km/h 29 km/h 71.6% 0 mm 244 W/m2
11:39 16.3 °C 11.2 °C 1016.1 hPa WSW 13.2 km/h 19.3 km/h 72% 0 mm 355 W/m2
11:44 16.4 °C 11.2 °C 1016.1 hPa WSW 16.4 km/h 25.7 km/h 71.2% 0 mm 436 W/m2
11:49 16.6 °C 11.3 °C 1016.1 hPa WSW 13.8 km/h 25.7 km/h 71% 0 mm 578 W/m2
11:54 16.8 °C 11.4 °C 1016.1 hPa SW 10.5 km/h 22.5 km/h 70.4% 0 mm 684 W/m2
11:59 17.1 °C 11.5 °C 1016.1 hPa West 14.5 km/h 25.7 km/h 69.8% 0 mm 529 W/m2
12:04 17 °C 11.5 °C 1016.1 hPa WSW 16.4 km/h 27.4 km/h 70% 0 mm 332 W/m2
12:09 16.8 °C 11.2 °C 1016.1 hPa SW 19.3 km/h 30.6 km/h 69.6% 0 mm 464 W/m2
12:14 16.7 °C 11.1 °C 1016.1 hPa WSW 17.5 km/h 30.6 km/h 69.4% 0 mm 1172 W/m2
12:19 17.2 °C 11.3 °C 1016.1 hPa WSW 16.4 km/h 30.6 km/h 68.2% 0 mm 1172 W/m2
12:24 17.3 °C 11.2 °C 1015.8 hPa WSW 11.7 km/h 30.6 km/h 67.6% 0 mm 441 W/m2
12:29 17.3 °C 11.4 °C 1016.1 hPa West 21.6 km/h 33.8 km/h 68.2% 0 mm 380 W/m2
12:34 17.3 °C 11.3 °C 1015.8 hPa WSW 15.1 km/h 25.7 km/h 67.8% 0 mm 946 W/m2
12:39 17.7 °C 11.7 °C 1015.8 hPa SW 13.8 km/h 25.7 km/h 68% 0 mm 891 W/m2
12:44 17.9 °C 11.7 °C 1015.8 hPa West 14.5 km/h 25.7 km/h 66.8% 0 mm 466 W/m2
12:49 18 °C 11.8 °C 1015.5 hPa WSW 13.7 km/h 22.5 km/h 67% 0 mm 944 W/m2
12:54 18.3 °C 12.2 °C 1015.8 hPa WSW 15.9 km/h 27.4 km/h 67.6% 0 mm 944 W/m2
12:59 18 °C 12.3 °C 1015.5 hPa WSW 16.6 km/h 30.6 km/h 69.6% 0 mm 519 W/m2
13:04 17.9 °C 12.3 °C 1015.5 hPa West 13.2 km/h 24.1 km/h 69.8% 0 mm 573 W/m2
13:09 17.8 °C 12.3 °C 1015.5 hPa WSW 17.2 km/h 29 km/h 70.2% 0 mm 751 W/m2
13:14 17.8 °C 12.2 °C 1015.5 hPa West 21.2 km/h 32.2 km/h 69.8% 0 mm 766 W/m2
13:19 17.9 °C 12.3 °C 1015.5 hPa West 14.8 km/h 30.6 km/h 70% 0 mm 606 W/m2
13:24 18.1 °C 12.4 °C 1015.5 hPa West 14.8 km/h 30.6 km/h 69.8% 0 mm 366 W/m2
13:29 18 °C 12.3 °C 1015.1 hPa West 18.2 km/h 30.6 km/h 69.6% 0 mm 348 W/m2
13:34 18.1 °C 12.4 °C 1015.1 hPa WSW 12.6 km/h 24.1 km/h 69.8% 0 mm 339 W/m2
13:39 18.1 °C 12.3 °C 1015.1 hPa WSW 14.8 km/h 27.4 km/h 69.2% 0 mm 385 W/m2
13:44 18.1 °C 12.3 °C 1015.1 hPa West 16.6 km/h 25.7 km/h 69.4% 0 mm 304 W/m2
13:49 18.2 °C 12.6 °C 1015.1 hPa West 10.8 km/h 25.7 km/h 70% 0 mm 265 W/m2
13:54 18.2 °C 12.5 °C 1015.1 hPa WSW 11.3 km/h 27.4 km/h 69.4% 0 mm 396 W/m2
13:59 18.1 °C 12.4 °C 1015.1 hPa West 13 km/h 30.6 km/h 69.6% 0 mm 510 W/m2
14:09 18.5 °C 12.6 °C 1014.8 hPa WNW 14 km/h 32.2 km/h 68.6% 0 mm 633 W/m2
14:14 18.7 °C 12.8 °C 1014.8 hPa West 14.5 km/h 25.7 km/h 68.6% 0 mm 455 W/m2
14:19 18.6 °C 12.7 °C 1014.8 hPa West 16.1 km/h 27.4 km/h 68.6% 0 mm 380 W/m2
14:24 18.6 °C 12.6 °C 1014.8 hPa SW 18 km/h 32.2 km/h 68% 0 mm 315 W/m2
14:29 18.4 °C 12.5 °C 1014.8 hPa West 18.2 km/h 32.2 km/h 68.3% 0 mm 473 W/m2
14:34 18.5 °C 12.7 °C 1014.8 hPa West 14.8 km/h 25.7 km/h 69% 0 mm 432 W/m2
14:39 18.6 °C 12.7 °C 1014.8 hPa WSW 19.8 km/h 29 km/h 69% 0 mm 352 W/m2
14:44 18.3 °C 12.7 °C 1014.8 hPa West 17.1 km/h 29 km/h 69.6% 0 mm 216 W/m2
14:49 18.3 °C 12.7 °C 1014.8 hPa WSW 10.9 km/h 27.4 km/h 70% 0 mm 206 W/m2
14:54 18.2 °C 12.9 °C 1015.1 hPa SW 16.4 km/h 30.6 km/h 71% 0 mm 308 W/m2
14:59 18.2 °C 12.8 °C 1014.8 hPa SSW 12.9 km/h 30.6 km/h 71% 0 mm 316 W/m2
15:04 18.2 °C 12.9 °C 1014.8 hPa WSW 14.5 km/h 35.4 km/h 71.2% 0 mm 350 W/m2
15:09 18.2 °C 12.9 °C 1015.1 hPa WSW 14.5 km/h 32.2 km/h 71.2% 0 mm 323 W/m2
15:14 18.2 °C 12.9 °C 1015.1 hPa SW 15.1 km/h 25.7 km/h 71.4% 0 mm 302 W/m2
15:19 18 °C 12.8 °C 1015.1 hPa WSW 17.4 km/h 29 km/h 71.5% 0 mm 380 W/m2
15:24 17.9 °C 12.8 °C 1015.1 hPa SW 14.2 km/h 29 km/h 72% 0 mm 392 W/m2
15:29 17.9 °C 12.8 °C 1015.1 hPa WSW 17.4 km/h 29 km/h 72% 0 mm 248 W/m2
15:34 17.8 °C 12.8 °C 1015.1 hPa West 14.5 km/h 27.4 km/h 72.6% 0 mm 250 W/m2
15:39 17.7 °C 12.8 °C 1015.1 hPa WSW 10.3 km/h 29 km/h 72.6% 0 mm 294 W/m2
15:44 17.9 °C 12.9 °C 1014.8 hPa WSW 13.2 km/h 24.1 km/h 72.8% 0 mm 304 W/m2
15:59 17.7 °C 12.8 °C 1014.8 hPa WSW 11.9 km/h 30.6 km/h 73% 0 mm 257 W/m2
16:04 17.7 °C 12.7 °C 1014.8 hPa SW 20.1 km/h 33.8 km/h 73% 0 mm 216 W/m2
16:08 17.4 °C 12.7 °C 1014.8 hPa SW 18.2 km/h 33.8 km/h 74% 0 mm 171 W/m2
16:14 17.2 °C 12.6 °C 1014.8 hPa SW 10.5 km/h 29 km/h 74% 0 mm 202 W/m2
16:19 17.2 °C 12.6 °C 1014.8 hPa WSW 15.4 km/h 30.6 km/h 74% 0 mm 258 W/m2
16:24 17.2 °C 12.6 °C 1014.8 hPa WSW 16.1 km/h 30.6 km/h 74% 0 mm 216 W/m2
16:29 17.2 °C 12.5 °C 1014.8 hPa WSW 14.8 km/h 30.6 km/h 74% 0 mm 193 W/m2
16:34 17.1 °C 12.6 °C 1014.8 hPa West 15.8 km/h 29 km/h 75.2% 0 mm 179 W/m2
16:39 16.8 °C 12.4 °C 1014.8 hPa WSW 13.8 km/h 22.5 km/h 76% 0 mm 204 W/m2
16:44 16.4 °C 12.4 °C 1014.8 hPa WSW 13.5 km/h 30.6 km/h 77% 0 mm 178 W/m2
16:49 15.8 °C 12.1 °C 1014.8 hPa WSW 14.8 km/h 32.2 km/h 78.2% 0.25 mm 155 W/m2
16:54 15.5 °C 12.3 °C 1014.8 hPa WSW 11.6 km/h 27.4 km/h 81.2% 0.51 mm 206 W/m2
16:59 15.4 °C 12.5 °C 1014.8 hPa SW 9.7 km/h 20.9 km/h 83% 0.51 mm 206 W/m2
17:04 15.3 °C 12.6 °C 1014.8 hPa WSW 12.1 km/h 24.1 km/h 84% 0.51 mm 181 W/m2
17:09 15.2 °C 12.6 °C 1014.8 hPa WSW 11.3 km/h 22.5 km/h 84.4% 0.51 mm 144 W/m2
17:14 15.2 °C 12.7 °C 1014.8 hPa SW 12.4 km/h 22.5 km/h 85% 0.51 mm 141 W/m2
17:19 15.1 °C 12.6 °C 1014.8 hPa WSW 12.2 km/h 19.3 km/h 85% 0.51 mm 111 W/m2
17:24 15.1 °C 12.6 °C 1014.8 hPa SW 13.4 km/h 20.9 km/h 85.4% 0.51 mm 102 W/m2
17:29 14.9 °C 12.7 °C 1014.8 hPa WSW 11.7 km/h 22.5 km/h 86% 0.51 mm 98 W/m2
17:34 14.9 °C 12.6 °C 1014.8 hPa WSW 8.5 km/h 16.1 km/h 86% 0.51 mm 91 W/m2
17:39 14.8 °C 12.6 °C 1014.8 hPa WSW 9.3 km/h 19.3 km/h 86% 0.76 mm 84 W/m2
17:44 14.8 °C 12.6 °C 1014.8 hPa WSW 7.9 km/h 16.1 km/h 86.4% 0.76 mm 81 W/m2
17:49 14.8 °C 12.7 °C 1014.8 hPa SW 8.4 km/h 16.1 km/h 87% 1.02 mm 88 W/m2
17:54 14.7 °C 12.6 °C 1014.4 hPa SW 10.3 km/h 24.1 km/h 87% 0.76 mm 86 W/m2
17:59 14.7 °C 12.6 °C 1014.4 hPa SW 9 km/h 20.9 km/h 87.2% 0.76 mm 86 W/m2
18:04 14.6 °C 12.5 °C 1014.4 hPa SW 12.9 km/h 24.1 km/h 87% 0.76 mm 84 W/m2
18:09 14.7 °C 12.6 °C 1014.4 hPa WSW 13.8 km/h 22.5 km/h 87% 0.76 mm 83 W/m2
18:14 14.6 °C 12.5 °C 1014.4 hPa WSW 11.9 km/h 22.5 km/h 87% 0.76 mm 67 W/m2
18:19 14.6 °C 12.5 °C 1014.4 hPa West 6 km/h 22.5 km/h 87% 0.76 mm 70 W/m2
18:24 14.7 °C 12.7 °C 1014.4 hPa WSW 6.6 km/h 12.9 km/h 87.8% 1.02 mm 63 W/m2
18:29 14.6 °C 12.5 °C 1014.4 hPa WSW 9.5 km/h 20.9 km/h 87.4% 1.02 mm 53 W/m2
18:34 14.6 °C 12.4 °C 1014.4 hPa WSW 8.7 km/h 22.5 km/h 87.2% 0.76 mm 56 W/m2
18:39 14.4 °C 12.4 °C 1014.4 hPa WSW 8 km/h 19.3 km/h 88% 0.76 mm 51 W/m2
18:44 14.6 °C 12.6 °C 1014.1 hPa WSW 5.8 km/h 9.7 km/h 88% 0.76 mm 44 W/m2
18:49 14.4 °C 12.4 °C 1014.4 hPa WSW 14.5 km/h 24.1 km/h 88% 0.76 mm 53 W/m2
18:54 14.4 °C 12.4 °C 1014.4 hPa SW 10.8 km/h 24.1 km/h 88% 0.76 mm 53 W/m2
18:59 14.4 °C 12.4 °C 1014.1 hPa SW 10.9 km/h 20.9 km/h 88% 0.76 mm 58 W/m2
19:04 14.4 °C 12.6 °C 1014.1 hPa SW 9.3 km/h 20.9 km/h 89% 0.51 mm 69 W/m2
19:09 14.4 °C 12.6 °C 1014.1 hPa SW 9.3 km/h 17.7 km/h 89% 0.51 mm 69 W/m2
19:14 14.4 °C 12.6 °C 1014.1 hPa SW 8.5 km/h 20.9 km/h 89% 0.51 mm 65 W/m2
19:19 14.4 °C 12.6 °C 1013.8 hPa SW 10.5 km/h 27.4 km/h 89% 0.51 mm 79 W/m2
19:24 14.4 °C 12.6 °C 1013.8 hPa SSW 9.5 km/h 22.5 km/h 89% 0.51 mm 81 W/m2
19:29 14.4 °C 12.7 °C 1013.8 hPa SW 8.5 km/h 20.9 km/h 89% 0.51 mm 67 W/m2
19:34 14.4 °C 12.6 °C 1013.8 hPa SW 10.8 km/h 22.5 km/h 89% 0.51 mm 47 W/m2
19:39 14.4 °C 12.6 °C 1013.8 hPa SW 6.8 km/h 22.5 km/h 89% 0.51 mm 39 W/m2
19:44 14.4 °C 12.7 °C 1013.8 hPa SSW 5.8 km/h 14.5 km/h 89% 0.25 mm 58 W/m2
19:49 14.4 °C 12.6 °C 1013.8 hPa SW 10.3 km/h 24.1 km/h 89% 0.25 mm 56 W/m2
19:54 14.4 °C 12.6 °C 1013.4 hPa SSW 9.8 km/h 17.7 km/h 89% 0 mm 44 W/m2
19:59 14.4 °C 12.7 °C 1013.4 hPa SW 9.8 km/h 17.7 km/h 89% 0 mm 49 W/m2
20:04 14.4 °C 12.6 °C 1013.4 hPa SW 14.2 km/h 25.7 km/h 89% 0 mm 37 W/m2
20:09 14.4 °C 12.7 °C 1013.4 hPa SW 14.5 km/h 32.2 km/h 89% 0 mm 26 W/m2
20:13 14.5 °C 12.7 °C 1013.4 hPa SSW 13.4 km/h 24.1 km/h 89% 0 mm 14 W/m2
20:19 14.5 °C 12.5 °C 1013.4 hPa SW 13.2 km/h 29 km/h 88% 0 mm 11 W/m2
20:24 14.6 °C 12.6 °C 1013.4 hPa SW 10.9 km/h 19.3 km/h 88% 0 mm 11 W/m2
20:29 14.6 °C 12.6 °C 1013.4 hPa SSW 14.5 km/h 22.5 km/h 88% 0 mm 12 W/m2
20:34 14.5 °C 12.5 °C 1013.4 hPa WSW 10.3 km/h 27.4 km/h 88% 0 mm 12 W/m2
20:39 14.5 °C 12.5 °C 1013.4 hPa SW 13.2 km/h 19.3 km/h 88% 0 mm 12 W/m2
20:44 14.6 °C 12.6 °C 1013.4 hPa SW 10 km/h 20.9 km/h 88% 0 mm 14 W/m2
20:49 14.6 °C 12.6 °C 1013.1 hPa SW 14.8 km/h 25.7 km/h 88% 0 mm 12 W/m2
20:54 14.6 °C 12.6 °C 1013.4 hPa WSW 8.4 km/h 25.7 km/h 88% 0 mm 11 W/m2
20:59 14.6 °C 12.6 °C 1013.1 hPa WSW 8.7 km/h 16.1 km/h 88% 0 mm 7 W/m2
21:04 14.6 °C 12.6 °C 1013.1 hPa WSW 9.7 km/h 17.7 km/h 88% 0 mm 7 W/m2
21:09 14.6 °C 12.6 °C 1013.1 hPa SSW 11.3 km/h 20.9 km/h 88% 0 mm 9 W/m2
21:14 14.6 °C 12.6 °C 1013.1 hPa WSW 10.6 km/h 24.1 km/h 88% 0 mm 9 W/m2
21:19 14.6 °C 12.6 °C 1013.1 hPa SW 12.7 km/h 20.9 km/h 88% 0 mm 5 W/m2
21:24 14.6 °C 12.6 °C 1012.8 hPa SW 11.9 km/h 30.6 km/h 88% 0 mm 0 W/m2
21:29 14.6 °C 12.6 °C 1012.8 hPa SW 10.8 km/h 20.9 km/h 88% 0 mm 0 W/m2
21:34 14.7 °C 12.7 °C 1012.8 hPa SW 11.9 km/h 24.1 km/h 88% 0 mm 0 W/m2
21:39 14.7 °C 12.7 °C 1012.8 hPa SSW 14 km/h 19.3 km/h 88% 0 mm 0 W/m2
21:44 14.7 °C 12.7 °C 1012.8 hPa WSW 6.3 km/h 19.3 km/h 88% 0 mm 0 W/m2
21:49 14.7 °C 12.7 °C 1012.8 hPa WSW 9 km/h 19.3 km/h 88% 0 mm 0 W/m2
21:54 14.7 °C 12.7 °C 1012.8 hPa SW 7.9 km/h 20.9 km/h 88% 0 mm 0 W/m2
21:59 14.7 °C 12.7 °C 1012.8 hPa SW 6.9 km/h 17.7 km/h 88% 0 mm 0 W/m2
22:04 14.7 °C 12.7 °C 1012.8 hPa SW 10 km/h 20.9 km/h 88% 0 mm 0 W/m2
22:09 14.7 °C 12.9 °C 1012.8 hPa SSW 11.6 km/h 24.1 km/h 88.8% 0 mm 0 W/m2
22:14 14.8 °C 12.9 °C 1012.8 hPa WSW 11.6 km/h 22.5 km/h 88.8% 0 mm 0 W/m2
22:19 14.8 °C 12.9 °C 1012.8 hPa SW 8.4 km/h 19.3 km/h 89% 0 mm 0 W/m2
22:24 14.8 °C 12.9 °C 1012.8 hPa SW 13.7 km/h 22.5 km/h 89% 0 mm 0 W/m2
22:29 14.7 °C 12.9 °C 1012.8 hPa SW 12.2 km/h 29 km/h 89% 0 mm 0 W/m2
22:34 14.7 °C 12.9 °C 1012.8 hPa SW 10 km/h 17.7 km/h 89% 0 mm 0 W/m2
22:39 14.8 °C 13 °C 1012.8 hPa SW 10.9 km/h 24.1 km/h 89% 0 mm 0 W/m2
22:44 14.8 °C 13 °C 1012.8 hPa SW 11.1 km/h 25.7 km/h 89% 0 mm 0 W/m2
22:49 14.8 °C 13 °C 1012.4 hPa WSW 12.2 km/h 22.5 km/h 89% 0 mm 0 W/m2
22:54 14.8 °C 13.1 °C 1012.4 hPa WSW 12.6 km/h 22.5 km/h 89% 0 mm 0 W/m2
22:59 14.9 °C 13.1 °C 1012.4 hPa WSW 15 km/h 22.5 km/h 89% 0 mm 0 W/m2
23:04 14.9 °C 13.1 °C 1012.4 hPa WSW 16.4 km/h 25.7 km/h 89% 0 mm 0 W/m2
23:09 15 °C 13.2 °C 1012.1 hPa WSW 16.3 km/h 33.8 km/h 89% 0 mm 0 W/m2
23:14 15 °C 13.2 °C 1012.1 hPa SW 15.1 km/h 35.4 km/h 89% 0 mm 0 W/m2
23:19 15.1 °C 13.3 °C 1012.1 hPa SW 15.4 km/h 29 km/h 89% 0 mm 0 W/m2
23:24 15.1 °C 13.3 °C 1012.1 hPa WSW 11.7 km/h 24.1 km/h 89% 0 mm 0 W/m2
23:29 15.1 °C 13.3 °C 1012.1 hPa SW 11.3 km/h 27.4 km/h 89% 0 mm 0 W/m2
23:34 15.1 °C 13.3 °C 1012.1 hPa SSW 10.3 km/h 24.1 km/h 89% 0 mm 0 W/m2
23:39 15.1 °C 13.3 °C 1012.1 hPa WSW 12.6 km/h 22.5 km/h 89% 0 mm 0 W/m2
23:44 15.1 °C 13.3 °C 1012.1 hPa SW 6.4 km/h 24.1 km/h 89% 0 mm 0 W/m2
23:49 15.1 °C 13.3 °C 1012.1 hPa SW 11.7 km/h 19.3 km/h 89% 0 mm 0 W/m2
23:54 15.1 °C 13.3 °C 1012.1 hPa WSW 12.7 km/h 20.9 km/h 89% 0 mm 0 W/m2
23:59 15.1 °C 13.3 °C 1012.1 hPa SW 12.6 km/h 25.7 km/h 89% 0 mm 0 W/m2
Bath Spa Weather
Compliments of Weather Underground - 2 mb